createdAt,value
2023-05-08T00:00:52.614Z,102284.03
2023-05-08T00:03:37.020Z,102281.84
2023-05-08T00:06:10.372Z,102268.41
2023-05-08T00:08:43.868Z,102273.13
2023-05-08T00:11:17.122Z,102266.56
2023-05-08T00:13:51.808Z,102271.63
2023-05-08T00:16:24.561Z,102276.22
2023-05-08T00:19:00.160Z,102279.03
2023-05-08T00:21:32.251Z,102274.22
2023-05-08T00:24:10.700Z,102279.38
2023-05-08T00:26:44.997Z,102288.72
2023-05-08T00:29:18.030Z,102282.63
2023-05-08T00:31:49.855Z,102289.28
2023-05-08T00:34:25.372Z,102276.34
2023-05-08T00:36:57.066Z,102292.53
2023-05-08T00:39:29.825Z,102282.38
2023-05-08T00:42:01.831Z,102287.94
2023-05-08T00:44:39.337Z,102296.66
2023-05-08T00:47:12.386Z,102294.09
2023-05-08T00:49:47.455Z,102301.13
2023-05-08T00:52:19.808Z,102294.53
2023-05-08T00:54:52.554Z,102307.59
2023-05-08T00:57:26.790Z,102312.00
2023-05-08T01:00:03.501Z,102297.53
2023-05-08T01:02:35.740Z,102299.28
2023-05-08T01:05:11.172Z,102303.97
2023-05-08T01:07:46.166Z,102305.13
2023-05-08T01:10:41.586Z,102307.41
2023-05-08T01:13:24.416Z,102300.56
2023-05-08T01:16:08.078Z,102302.59
2023-05-08T01:18:58.288Z,102301.22
2023-05-08T01:21:42.906Z,102309.25
2023-05-08T01:24:46.015Z,102306.56
2023-05-08T01:27:50.116Z,102307.28
2023-05-08T01:30:53.173Z,102303.53
2023-05-08T01:33:35.911Z,102316.38
2023-05-08T01:36:21.122Z,102310.00
2023-05-08T01:39:00.062Z,102307.72
2023-05-08T01:41:35.072Z,102308.78
2023-05-08T01:44:17.116Z,102312.47
2023-05-08T01:46:57.105Z,102312.97
2023-05-08T01:49:41.334Z,102322.19
2023-05-08T01:52:21.653Z,102318.53
2023-05-08T01:55:02.325Z,102319.81
2023-05-08T01:57:37.720Z,102319.41
2023-05-08T02:00:12.852Z,102314.16
2023-05-08T02:02:46.511Z,102314.47
2023-05-08T02:05:24.134Z,102312.03
2023-05-08T02:07:57.724Z,102325.50
2023-05-08T02:10:32.487Z,102325.50
2023-05-08T02:13:05.892Z,102313.41
2023-05-08T02:15:40.353Z,102315.22
2023-05-08T02:18:13.277Z,102316.81
2023-05-08T02:20:48.321Z,102308.78
2023-05-08T02:23:22.639Z,102309.88
2023-05-08T02:26:11.050Z,102310.91
2023-05-08T02:28:44.708Z,102319.50
2023-05-08T02:31:19.358Z,102306.84
2023-05-08T02:33:53.019Z,102313.03
2023-05-08T02:36:29.589Z,102305.13
2023-05-08T02:39:03.534Z,102311.22
2023-05-08T02:41:37.425Z,102309.94
2023-05-08T02:44:09.889Z,102302.44
2023-05-08T02:47:01.324Z,102299.03
2023-05-08T02:49:40.225Z,102307.38
2023-05-08T02:52:20.882Z,102307.66
2023-05-08T02:54:59.742Z,102304.91
2023-05-08T02:57:43.731Z,102306.38
2023-05-08T03:00:28.808Z,102307.97
2023-05-08T03:03:05.103Z,102308.75
2023-05-08T03:05:40.693Z,102307.66
2023-05-08T03:08:24.418Z,102312.47
2023-05-08T03:11:00.531Z,102309.69
2023-05-08T03:13:42.329Z,102316.88
2023-05-08T03:16:20.046Z,102313.63
2023-05-08T03:18:56.229Z,102315.56
2023-05-08T03:21:32.569Z,102315.75
2023-05-08T03:24:11.003Z,102314.13
2023-05-08T03:26:43.022Z,102308.25
2023-05-08T03:29:18.537Z,102320.38
2023-05-08T03:31:51.328Z,102318.63
2023-05-08T03:34:26.691Z,102316.91
2023-05-08T03:36:58.827Z,102314.97
2023-05-08T03:39:33.905Z,102316.78
2023-05-08T03:42:06.412Z,102315.81
2023-05-08T03:44:38.585Z,102317.53
2023-05-08T03:47:11.450Z,102323.06
2023-05-08T03:49:44.116Z,102324.03
2023-05-08T03:52:19.596Z,102320.53
2023-05-08T03:54:54.978Z,102324.53
2023-05-08T03:57:31.172Z,102330.66
2023-05-08T04:00:10.503Z,102329.03
2023-05-08T04:02:50.717Z,102329.38
2023-05-08T04:05:33.329Z,102330.66
2023-05-08T04:08:12.900Z,102332.44
2023-05-08T04:10:53.108Z,102334.19
2023-05-08T04:13:30.838Z,102328.31
2023-05-08T04:16:10.737Z,102334.72
2023-05-08T04:18:49.089Z,102336.53
2023-05-08T04:21:26.570Z,102335.03
2023-05-08T04:24:00.462Z,102337.50
2023-05-08T04:26:37.097Z,102329.63
2023-05-08T04:29:10.805Z,102332.84
2023-05-08T04:31:44.744Z,102345.88
2023-05-08T04:34:19.091Z,102336.19
2023-05-08T04:37:03.878Z,102340.56
2023-05-08T04:39:36.069Z,102341.75
2023-05-08T04:42:11.299Z,102344.72
2023-05-08T04:44:43.456Z,102347.28
2023-05-08T04:47:16.228Z,102356.38
2023-05-08T04:49:48.262Z,102355.88
2023-05-08T04:52:20.954Z,102369.91
2023-05-08T04:54:53.059Z,102364.75
2023-05-08T04:57:28.221Z,102377.19
2023-05-08T05:00:00.679Z,102372.28
2023-05-08T05:02:33.234Z,102372.94
2023-05-08T05:05:06.155Z,102376.78
2023-05-08T05:07:38.257Z,102375.50
2023-05-08T05:10:11.079Z,102370.25
2023-05-08T05:12:49.396Z,102376.25
2023-05-08T05:15:21.887Z,102390.50
2023-05-08T05:17:56.601Z,102381.50
2023-05-08T05:20:29.035Z,102379.03
2023-05-08T05:23:01.507Z,102386.84
2023-05-08T05:25:33.437Z,102382.22
2023-05-08T05:28:08.676Z,102380.03
2023-05-08T05:30:40.994Z,102388.28
2023-05-08T05:33:16.536Z,102394.91
2023-05-08T05:35:48.636Z,102388.38
2023-05-08T05:38:21.052Z,102395.44
2023-05-08T05:40:53.114Z,102393.66
2023-05-08T05:43:28.274Z,102391.88
2023-05-08T05:46:06.848Z,102392.78
2023-05-08T05:48:39.353Z,102395.91
2023-05-08T05:51:11.454Z,102404.19
2023-05-08T05:53:44.308Z,102400.38
2023-05-08T05:56:16.438Z,102401.84
2023-05-08T05:58:51.511Z,102400.22
2023-05-08T06:01:29.491Z,102400.88
2023-05-08T06:04:02.191Z,102402.53
2023-05-08T06:06:34.314Z,102401.88
2023-05-08T06:09:07.611Z,102399.25
2023-05-08T06:11:39.834Z,102394.34
2023-05-08T06:14:14.860Z,102403.56
2023-05-08T06:16:47.427Z,102402.09
2023-05-08T06:19:20.359Z,102400.06
2023-05-08T06:21:54.730Z,102404.31
2023-05-08T06:24:43.093Z,102402.13
2023-05-08T06:27:15.364Z,102411.44
2023-05-08T06:29:52.012Z,102400.38
2023-05-08T06:32:24.514Z,102404.94
2023-05-08T06:34:57.271Z,102405.91
2023-05-08T06:40:29.996Z,102408.38
2023-05-08T06:43:01.814Z,102406.91
2023-05-08T06:45:36.899Z,102411.28
2023-05-08T06:48:10.021Z,102411.97
2023-05-08T06:50:43.766Z,102405.69
2023-05-08T06:53:15.800Z,102407.81
2023-05-08T06:55:48.155Z,102412.63
2023-05-08T06:58:28.877Z,102403.81
2023-05-08T07:01:04.573Z,102410.75
2023-05-08T07:03:37.667Z,102394.69
2023-05-08T07:06:12.762Z,102410.78
2023-05-08T07:08:45.296Z,102403.25
2023-05-08T07:11:18.418Z,102416.41
2023-05-08T07:13:51.116Z,102415.06
2023-05-08T07:16:27.038Z,102405.59
2023-05-08T07:18:59.859Z,102397.91
2023-05-08T07:21:35.594Z,102399.06
2023-05-08T07:24:09.815Z,102407.19
2023-05-08T07:26:43.338Z,102404.50
2023-05-08T07:29:15.979Z,102396.94
2023-05-08T07:31:52.747Z,102412.19
2023-05-08T07:34:25.703Z,102416.09
2023-05-08T07:37:12.666Z,102407.56
2023-05-08T07:39:45.349Z,102399.66
2023-05-08T07:42:18.698Z,102397.31
2023-05-08T07:44:54.949Z,102406.91
2023-05-08T07:47:31.185Z,102411.03
2023-05-08T07:50:03.533Z,102402.09
2023-05-08T07:52:39.651Z,102407.41
2023-05-08T07:55:13.430Z,102403.66
2023-05-08T07:57:47.369Z,102392.66
2023-05-08T08:00:21.101Z,102393.13
2023-05-08T08:02:57.057Z,102388.03
2023-05-08T08:05:29.568Z,102389.50
2023-05-08T08:08:02.421Z,102394.59
2023-05-08T08:10:36.098Z,102394.53
2023-05-08T08:13:08.889Z,102382.00
2023-05-08T08:15:42.380Z,102393.81
2023-05-08T08:18:18.466Z,102382.06
2023-05-08T08:20:50.891Z,102375.91
2023-05-08T08:23:23.652Z,102386.81
2023-05-08T08:25:56.169Z,102394.91
2023-05-08T08:28:37.793Z,102383.16
2023-05-08T08:31:17.043Z,102393.50
2023-05-08T08:33:52.495Z,102384.31
2023-05-08T08:36:24.930Z,102382.56
2023-05-08T08:38:59.012Z,102389.28
2023-05-08T08:41:31.533Z,102383.16
2023-05-08T08:44:04.463Z,102389.38
2023-05-08T08:46:38.437Z,102386.06
2023-05-08T08:49:17.455Z,102390.16
2023-05-08T08:51:55.298Z,102385.16
2023-05-08T08:54:31.958Z,102373.13
2023-05-08T08:57:09.178Z,102393.03
2023-05-08T08:59:42.934Z,102372.56
2023-05-08T09:02:18.347Z,102379.69
2023-05-08T09:04:55.175Z,102384.22
2023-05-08T09:07:27.864Z,102380.38
2023-05-08T09:10:01.268Z,102377.81
2023-05-08T09:12:33.615Z,102368.06
2023-05-08T09:15:06.382Z,102366.03
2023-05-08T09:17:38.662Z,102358.06
2023-05-08T09:20:17.939Z,102379.03
2023-05-08T09:22:50.893Z,102372.16
2023-05-08T09:25:23.894Z,102360.88
2023-05-08T09:27:56.536Z,102369.13
2023-05-08T09:30:29.176Z,102368.84
2023-05-08T09:33:06.785Z,102367.53
2023-05-08T09:35:45.254Z,102362.00
2023-05-08T09:38:38.855Z,102377.34
2023-05-08T09:41:16.499Z,102355.00
2023-05-08T09:44:04.057Z,102362.69
2023-05-08T09:46:37.892Z,102367.53
2023-05-08T09:49:20.229Z,102360.41
2023-05-08T09:51:58.915Z,102368.59
2023-05-08T09:54:31.705Z,102351.81
2023-05-08T09:57:15.378Z,102367.22
2023-05-08T09:59:49.624Z,102349.25
2023-05-08T10:02:22.799Z,102357.06
2023-05-08T10:04:55.555Z,102351.63
2023-05-08T10:07:36.334Z,102356.50
2023-05-08T10:10:10.641Z,102348.66
2023-05-08T10:12:44.860Z,102354.50
2023-05-08T10:15:17.618Z,102353.06
2023-05-08T10:17:57.910Z,102343.56
2023-05-08T10:20:33.866Z,102343.22
2023-05-08T10:23:11.972Z,102338.09
2023-05-08T10:25:48.411Z,102343.94
2023-05-08T10:28:27.941Z,102338.56
2023-05-08T10:31:04.182Z,102343.38
2023-05-08T10:33:39.253Z,102342.56
2023-05-08T10:36:13.776Z,102337.91
2023-05-08T10:38:51.136Z,102335.50
2023-05-08T10:41:24.941Z,102322.28
2023-05-08T10:44:00.677Z,102324.75
2023-05-08T10:46:55.422Z,102320.16
2023-05-08T10:49:39.858Z,102313.47
2023-05-08T10:52:22.378Z,102311.13
2023-05-08T10:55:24.706Z,102311.44
2023-05-08T10:58:07.593Z,102310.91
2023-05-08T11:01:25.153Z,102316.75
2023-05-08T11:03:58.555Z,102307.50
2023-05-08T11:06:47.302Z,102301.97
2023-05-08T11:09:25.254Z,102305.25
2023-05-08T11:12:15.261Z,102294.66
2023-05-08T11:14:57.213Z,102298.94
2023-05-08T11:17:30.366Z,102299.50
2023-05-08T11:20:04.692Z,102293.56
2023-05-08T11:22:38.748Z,102302.25
2023-05-08T11:25:13.388Z,102291.22
2023-05-08T11:28:15.625Z,102298.81
2023-05-08T11:30:48.449Z,102300.03
2023-05-08T11:33:21.620Z,102284.84
2023-05-08T11:35:56.997Z,102286.13
2023-05-08T11:38:36.555Z,102288.13
2023-05-08T11:41:10.986Z,102283.16
2023-05-08T11:44:19.030Z,102278.06
2023-05-08T11:46:56.057Z,102278.25
2023-05-08T11:49:30.530Z,102282.53
2023-05-08T11:52:06.552Z,102269.13
2023-05-08T11:54:40.611Z,102262.22
2023-05-08T11:57:12.934Z,102293.78
2023-05-08T11:59:52.940Z,102260.28
2023-05-08T12:02:38.975Z,102260.97
2023-05-08T12:05:15.898Z,102265.50
2023-05-08T12:07:48.337Z,102258.97
2023-05-08T12:10:21.778Z,102269.69
2023-05-08T12:12:54.228Z,102262.31
2023-05-08T12:15:30.094Z,102273.66
2023-05-08T12:18:05.972Z,102260.03
2023-05-08T12:20:38.696Z,102270.63
2023-05-08T12:23:13.663Z,102258.50
2023-05-08T12:25:46.694Z,102253.47
2023-05-08T12:28:19.854Z,102269.31
2023-05-08T12:30:55.459Z,102262.41
2023-05-08T12:33:29.233Z,102253.88
2023-05-08T12:36:07.013Z,102254.19
2023-05-08T12:38:39.531Z,102249.34
2023-05-08T12:41:12.299Z,102244.91
2023-05-08T12:43:44.693Z,102255.38
2023-05-08T12:46:23.015Z,102244.59
2023-05-08T12:49:08.295Z,102238.41
2023-05-08T12:51:41.570Z,102236.72
2023-05-08T12:54:13.973Z,102236.19
2023-05-08T12:56:47.574Z,102234.78
2023-05-08T12:59:20.294Z,102233.59
2023-05-08T13:01:57.576Z,102232.97
2023-05-08T13:04:30.766Z,102229.06
2023-05-08T13:07:04.225Z,102226.34
2023-05-08T13:09:37.214Z,102232.03
2023-05-08T13:12:11.055Z,102212.13
2023-05-08T13:14:43.773Z,102219.19
2023-05-08T13:17:24.082Z,102222.91
2023-05-08T13:19:57.091Z,102215.81
2023-05-08T13:22:30.140Z,102210.88
2023-05-08T13:25:02.500Z,102201.50
2023-05-08T13:27:38.015Z,102206.47
2023-05-08T13:30:23.091Z,102188.16
2023-05-08T13:33:00.798Z,102198.31
2023-05-08T13:35:37.983Z,102206.47
2023-05-08T13:38:10.910Z,102207.16
2023-05-08T13:40:43.577Z,102190.78
2023-05-08T13:43:16.347Z,102188.88
2023-05-08T13:45:57.502Z,102191.59
2023-05-08T13:48:33.493Z,102187.09
2023-05-08T13:51:09.428Z,102173.94
2023-05-08T13:53:42.422Z,102178.25
2023-05-08T13:56:15.061Z,102181.25
2023-05-08T13:58:47.852Z,102175.00
2023-05-08T14:01:26.782Z,102168.81
2023-05-08T14:04:05.047Z,102169.88
2023-05-08T14:06:37.533Z,102165.50
2023-05-08T14:09:10.484Z,102151.09
2023-05-08T14:11:42.733Z,102150.06
2023-05-08T14:14:19.015Z,102162.28
2023-05-08T14:16:52.495Z,102157.16
2023-05-08T14:19:28.010Z,102154.44
2023-05-08T14:22:00.377Z,102163.22
2023-05-08T14:24:43.256Z,102144.91
2023-05-08T14:27:15.659Z,102145.34
2023-05-08T14:29:48.381Z,102151.88
2023-05-08T14:35:16.571Z,102146.91
2023-05-08T14:37:50.654Z,102143.09
2023-05-08T14:40:24.685Z,102147.19
2023-05-08T14:42:57.053Z,102137.31
2023-05-08T14:45:29.559Z,102143.75
2023-05-08T14:48:01.992Z,102133.75
2023-05-08T14:50:41.373Z,102133.94
2023-05-08T14:53:15.740Z,102128.50
2023-05-08T14:55:48.840Z,102133.84
2023-05-08T14:58:21.656Z,102137.31
2023-05-08T15:00:54.458Z,102136.47
2023-05-08T15:03:26.885Z,102145.66
2023-05-08T15:06:02.500Z,102135.13
2023-05-08T15:08:34.852Z,102139.47
2023-05-08T15:11:07.616Z,102138.88
2023-05-08T15:13:40.141Z,102136.47
2023-05-08T15:16:12.869Z,102126.72
2023-05-08T15:18:45.413Z,102128.34
2023-05-08T15:21:26.061Z,102138.19
2023-05-08T15:23:58.940Z,102125.41
2023-05-08T15:26:31.969Z,102121.84
2023-05-08T15:29:04.813Z,102126.94
2023-05-08T15:31:38.063Z,102131.03
2023-05-08T15:34:11.014Z,102128.50
2023-05-08T15:36:49.186Z,102128.34
2023-05-08T15:39:24.854Z,102121.69
2023-05-08T15:41:57.976Z,102121.63
2023-05-08T15:47:15.735Z,102135.28
2023-05-08T15:49:51.124Z,102129.41
2023-05-08T15:52:28.792Z,102119.50
2023-05-08T15:55:04.175Z,102125.47
2023-05-08T15:57:40.542Z,102118.72
2023-05-08T16:00:15.737Z,102110.28
2023-05-08T16:02:51.937Z,102119.44
2023-05-08T16:05:25.259Z,102116.72
2023-05-08T16:08:01.516Z,102122.97
2023-05-08T16:10:34.271Z,102105.75
2023-05-08T16:13:07.403Z,102109.88
2023-05-08T16:15:40.531Z,102107.94
2023-05-08T16:18:13.579Z,102093.66
2023-05-08T16:20:46.453Z,102101.34
2023-05-08T16:23:22.340Z,102095.41
2023-05-08T16:25:55.095Z,102097.41
2023-05-08T16:28:28.136Z,102093.59
2023-05-08T16:31:02.429Z,102099.28
2023-05-08T16:33:36.219Z,102096.50
2023-05-08T16:36:10.384Z,102101.75
2023-05-08T16:38:46.543Z,102094.75
2023-05-08T16:41:19.940Z,102102.47
2023-05-08T16:43:53.027Z,102089.91
2023-05-08T16:46:29.839Z,102094.19
2023-05-08T16:49:03.899Z,102087.09
2023-05-08T16:51:48.575Z,102092.13
2023-05-08T16:54:24.458Z,102091.41
2023-05-08T16:56:59.897Z,102097.38
2023-05-08T16:59:33.188Z,102096.84
2023-05-08T17:02:06.175Z,102087.22
2023-05-08T17:04:38.976Z,102088.13
2023-05-08T17:07:11.495Z,102085.59
2023-05-08T17:10:22.254Z,102086.75
2023-05-08T17:12:57.524Z,102084.19
2023-05-08T17:18:12.808Z,102071.06
2023-05-08T17:20:44.740Z,102073.09
2023-05-08T17:23:16.027Z,102071.44
2023-05-08T17:25:49.998Z,102080.78
2023-05-08T17:28:26.882Z,102078.94
2023-05-08T17:31:00.492Z,102080.09
2023-05-08T17:33:35.841Z,102085.09
2023-05-08T17:36:08.678Z,102080.56
2023-05-08T17:38:46.270Z,102076.13
2023-05-08T17:41:22.271Z,102082.09
2023-05-08T17:43:56.623Z,102083.81
2023-05-08T17:46:30.916Z,102081.91
2023-05-08T17:49:11.663Z,102076.50
2023-05-08T17:51:45.974Z,102076.34
2023-05-08T17:54:25.405Z,102086.38
2023-05-08T17:57:04.600Z,102091.31
2023-05-08T17:59:39.215Z,102084.22
2023-05-08T18:02:11.272Z,102093.03
2023-05-08T18:04:47.165Z,102093.38
2023-05-08T18:07:22.152Z,102095.59
2023-05-08T18:09:54.960Z,102098.63
2023-05-08T18:12:30.237Z,102094.72
2023-05-08T18:15:09.174Z,102097.28
2023-05-08T18:17:41.313Z,102107.13
2023-05-08T18:20:36.346Z,102099.31
2023-05-08T18:23:07.890Z,102104.22
2023-05-08T18:25:40.152Z,102099.66
2023-05-08T18:28:12.331Z,102108.13
2023-05-08T18:30:49.501Z,102101.84
2023-05-08T18:33:21.570Z,102105.25
2023-05-08T18:35:54.373Z,102111.00
2023-05-08T18:38:31.087Z,102118.25
2023-05-08T18:41:07.572Z,102110.28
2023-05-08T18:43:43.956Z,102116.16
2023-05-08T18:46:28.130Z,102112.91
2023-05-08T18:49:01.984Z,102117.66
2023-05-08T18:51:34.615Z,102133.03
2023-05-08T18:54:09.952Z,102124.00
2023-05-08T18:56:41.525Z,102125.88
2023-05-08T18:59:16.864Z,102127.34
2023-05-08T19:01:55.090Z,102135.50
2023-05-08T19:04:27.338Z,102130.91
2023-05-08T19:07:06.916Z,102134.25
2023-05-08T19:09:49.850Z,102136.25
2023-05-08T19:12:57.234Z,102143.34
2023-05-08T19:15:31.293Z,102144.44
2023-05-08T19:18:08.916Z,102140.19
2023-05-08T19:20:44.618Z,102140.53
2023-05-08T19:23:17.876Z,102131.00
2023-05-08T19:25:50.449Z,102146.88
2023-05-08T19:28:22.525Z,102144.47
2023-05-08T19:30:55.139Z,102135.28
2023-05-08T19:33:31.899Z,102138.63
2023-05-08T19:36:04.476Z,102141.81
2023-05-08T19:38:37.656Z,102131.91
2023-05-08T19:41:10.222Z,102138.66
2023-05-08T19:43:42.298Z,102138.66
2023-05-08T19:46:14.827Z,102137.56
2023-05-08T19:48:49.679Z,102129.22
2023-05-08T19:51:28.039Z,102137.09
2023-05-08T19:54:00.594Z,102135.88
2023-05-08T19:56:32.876Z,102136.66
2023-05-08T19:59:05.174Z,102137.56
2023-05-08T20:01:39.055Z,102133.88
2023-05-08T20:04:13.941Z,102145.47
2023-05-08T20:06:47.190Z,102148.31
2023-05-08T20:09:19.200Z,102147.84
2023-05-08T20:11:51.736Z,102149.50
2023-05-08T20:14:30.603Z,102144.78
2023-05-08T20:17:02.998Z,102144.03
2023-05-08T20:19:37.630Z,102151.88
2023-05-08T20:22:11.576Z,102140.97
2023-05-08T20:24:43.632Z,102153.66
2023-05-08T20:27:16.156Z,102144.72
2023-05-08T20:29:51.204Z,102148.41
2023-05-08T20:32:23.568Z,102151.00
2023-05-08T20:34:58.104Z,102151.75
2023-05-08T20:37:30.991Z,102144.94
2023-05-08T20:40:05.319Z,102146.81
2023-05-08T20:42:37.614Z,102148.38
2023-05-08T20:45:11.141Z,102142.13
2023-05-08T20:47:43.617Z,102140.88
2023-05-08T20:50:18.422Z,102139.72
2023-05-08T20:52:50.924Z,102144.56
2023-05-08T20:55:23.278Z,102140.75
2023-05-08T20:57:55.780Z,102141.19
2023-05-08T21:00:27.826Z,102151.88
2023-05-08T21:03:00.371Z,102153.72
2023-05-08T21:05:35.138Z,102146.34
2023-05-08T21:08:09.315Z,102151.75
2023-05-08T21:10:41.838Z,102157.13
2023-05-08T21:13:14.343Z,102154.34
2023-05-08T21:15:46.695Z,102149.91
2023-05-08T21:18:19.296Z,102150.66
2023-05-08T21:20:54.708Z,102142.16
2023-05-08T21:23:27.498Z,102150.38
2023-05-08T21:25:59.922Z,102146.13
2023-05-08T21:28:33.310Z,102144.69
2023-05-08T21:31:06.206Z,102138.59
2023-05-08T21:33:38.899Z,102129.94
2023-05-08T21:36:14.102Z,102127.81
2023-05-08T21:38:46.498Z,102126.56
2023-05-08T21:41:18.421Z,102121.84
2023-05-08T21:43:51.165Z,102120.88
2023-05-08T21:46:23.157Z,102122.44
2023-05-08T21:48:57.867Z,102120.47
2023-05-08T21:51:33.034Z,102122.72
2023-05-08T21:54:05.424Z,102130.38
2023-05-08T21:56:37.484Z,102135.91
2023-05-08T21:59:10.764Z,102130.66
2023-05-08T22:01:42.822Z,102126.66
2023-05-08T22:04:29.821Z,102124.25
2023-05-08T22:07:04.624Z,102116.56
2023-05-08T22:09:37.463Z,102117.16
2023-05-08T22:12:10.706Z,102112.88
2023-05-08T22:14:43.124Z,102113.88
2023-05-08T22:17:15.947Z,102108.88
2023-05-08T22:19:48.241Z,102117.97
2023-05-08T22:22:22.941Z,102107.31
2023-05-08T22:24:55.316Z,102122.50
2023-05-08T22:27:27.507Z,102104.34
2023-05-08T22:30:00.709Z,102101.38
2023-05-08T22:32:32.954Z,102107.88
2023-05-08T22:35:05.421Z,102103.75
2023-05-08T22:37:40.104Z,102095.94
2023-05-08T22:40:13.403Z,102094.97
2023-05-08T22:42:47.919Z,102105.19
2023-05-08T22:45:21.281Z,102094.53
2023-05-08T22:47:54.799Z,102096.91
2023-05-08T22:50:27.286Z,102099.75
2023-05-08T22:53:04.770Z,102092.91
2023-05-08T22:55:37.341Z,102088.09
2023-05-08T22:58:09.648Z,102085.53
2023-05-08T23:00:42.817Z,102086.63
2023-05-08T23:03:14.942Z,102082.06
2023-05-08T23:05:49.308Z,102081.50
2023-05-08T23:08:24.022Z,102080.22
2023-05-08T23:10:56.542Z,102072.81
2023-05-08T23:13:29.228Z,102074.94
2023-05-08T23:16:01.920Z,102074.81
2023-05-08T23:18:36.627Z,102066.44
2023-05-08T23:21:10.646Z,102067.69
2023-05-08T23:23:46.188Z,102057.75
2023-05-08T23:26:20.126Z,102059.69
2023-05-08T23:28:52.060Z,102053.03
2023-05-08T23:31:24.382Z,102061.03
2023-05-08T23:33:56.569Z,102061.03
2023-05-08T23:36:29.316Z,102055.94
2023-05-08T23:39:04.737Z,102052.41
2023-05-08T23:41:37.523Z,102048.41
2023-05-08T23:44:10.746Z,102048.78
2023-05-08T23:46:43.436Z,102044.25
2023-05-08T23:49:15.904Z,102048.94
2023-05-08T23:51:48.640Z,102036.13
2023-05-08T23:54:23.883Z,102037.22
2023-05-08T23:57:11.139Z,102034.09
2023-05-08T23:59:44.207Z,102032.97
